Airfield :
LOGIN :

Register | Disclaimer

   EN    FR    IT 

 










Legend :    VFR   Marginal VFR   IFR   Intensive IFR   Very Intensive IFR
Visi :
Ceiling :
>= 8 km
>= 3000ft
5 to 8 km
1000 to 3000 ft
1500m to 5 km
500 to 1000 ft
800 to 1500m
200 to 500 ft
< 800m
< 200 ft
Symbols :   Thunderstorms  Fog  Heavy snow  Heavy precipitations  Wind > 20 kt
SIGMETs :     Misc.  Thunderstorms  Icing  Turbulence  Mountain Waves  Volcanic Ashes






- Airport Elevation : 42 ft
- IATA code : BOO


ENBO - Bodø

CURRENT METAR :
  • 280620Z 10016KT 9999 VCSH FEW010 SCT035 BKN045 M01/M08 Q0991 TEMPO 2000 SHSN VV010

EXPIRED METARs :
  • 280550Z 09016KT 9999 FEW010 SCT035 BKN045 M01/M07 Q0991 TEMPO 2000 SHSN VV010
  • 280520Z 11011KT 9999 -SHSN FEW008 SCT030 BKN035 M00/M07 Q0991 TEMPO 2000 SHSN VV010
  • 280450Z 11011KT 9999 FEW020 BKN035 00/M07 Q0991 NOSIG
  • 280420Z 12012KT 9999 FEW020 BKN035 00/M08 Q0991
  • 280350Z 13012KT 9999 FEW020 BKN035 00/M08 Q0991

COR TAF ENBO
Valid from the 28 at 06:00 until the 29 at 06:00 UTC


2806/2906 12018KT 9999 FEW015TCU BKN030
TEMPO 2806/2811 2000 SHSN VV008
BECMG 2809/2811 FEW012CB BKN025
TEMPO 2811/2821 1000 SHSNGS VV006
BECMG 2903/2906 32015KT
TEMPO 2903/2906 1500 SHSNGS VV008



MET'MAP, your aeronautical weather chart ! - Copyright ORBIFLY December 2007 - Disclaimer

ORBIFLY MET'MAP TEAM :

Programming & Development : Alexandra Zaïnal
Concept & original design : Baudouin d'Aumeries
Assistance for programming : Marc-Olivier Méhu
Technical & hardware support : Manuel Goepfert

Contact : metmap@orbifly.com




SOURCES & CREDITS :

   NOAA